Sciota, PA (18354)

4:08 PM EDT on August 22, 2014 (GMT -0400)
Frog Hollow | Change Station
CLOSE
Current Station
Personal Weather Station
Location: Saylorsburg, PA
Elevation: 656 ft
Nearby Weather Stations

Elev 656 ft 40.90 °N, 75.31 °W | Updated 7 minutes ago

Overcast
Overcast
71.3 °F
Feels Like 71.3 °F
N
0.0
Wind Variable Wind from West
Gusts 0.0 mph

Today
High -- | Low -- °F
--% Chance of Precip.
Yesterday
High -- | Low -- °F
Precip. -- in
6:17 AM 7:49 PM
Waning Crescent, 7% visible
Pressure 30.04 in
Visibility 9.0 miles
Clouds Overcast 1200 ft
Dew Point 68 °F
Humidity 89%
Rainfall 0.46 in
Snow Depth Not available.
UV 2 out of 12
Pollen 7.40 out of 12
Air Quality Not available.
Flu Activity Not available.
METAR KMPO 221953Z AUTO 13005KT 9SM OVC012 19/17 A3005 RMK AO2 SLP171 T01940167 TSNO $

More Conditions Fewer Conditions

Pressure 30.04 in
Visibility 9.0 miles
Clouds Overcast 1200 ft
Dew Point 68 °F
Humidity 89%
Rainfall 0.46 in
Snow Depth Not available.
UV 2 out of 12
Pollen 7.40 out of 12
Air Quality Not available.
Flu Activity Not available.
METAR KMPO 221953Z AUTO 13005KT 9SM OVC012 19/17 A3005 RMK AO2 SLP171 T01940167 TSNO $

More Conditions Fewer Conditions

10-Day Weather Forecast

Almanac

Astronomy

Aug. 22, 2014 Rise Set
Actual Time 6:17 AM EDT 7:49 PM EDT
Civil Twilight 5:49 AM EDT 8:18 PM EDT
Nautical Twilight 5:14 AM EDT 8:52 PM EDT
Astronomical Twilight 4:37 AM EDT 9:29 PM EDT
Moon 3:37 AM EDT 5:56 PM EDT
Length of Visible Light 14h 29m
Length of Day
13h 31m
Tomorrow will be 2m 30s shorter.
Waning Crescent, 7% of the Moon is Illuminated
Today
Waning Crescent
Aug 25
New
Sep 2
First Quarter
Sep 8
Full
Sep 15
Last Quarter

Today's Extremes

State Highs State Lows

Community

WunderPhotos

Upload Photos

1,746,239 photos uploaded!

Nearby

Snow Depth

Station Depth Elevation
No new snow has been reported.

Earthquake Activity

City Distance Mag. Time & Date
No recent earthquake activity has been reported nearby.
Minimum magnitude displayed is 2.5.

Coastal Water Temperatures

Place Temperature
No Stations Reporting

Nearby Weather Stations